Time;durP1;ratioP1;P1;durP2;ratioP2;P2;SDS_P1;SDS_P2;PMS_P1;PMS_P2;Temp;Humidity;BMP_temperature;BMP_pressure;BME280_temperature;BME280_humidity;BME280_pressure;Samples;Min_cycle;Max_cycle;Signal;HPM_P1;HPM_P2
2021/10/08 00:01:06;;;;;;;1.90;1.77;;;;;;;13.16;67.82;103168.53;5045696;28;20404;-85
2021/10/08 00:03:32;;;;;;;0.73;0.73;;;;;;;13.08;67.39;103167.56;5039116;28;20051;-83
2021/10/08 00:05:59;;;;;;;0.10;0.10;;;;;;;13.07;67.41;103179.09;5045917;28;20111;-84
2021/10/08 00:08:25;;;;;;;0.85;0.73;;;;;;;13.00;67.68;103166.66;5043560;28;20111;-84
2021/10/08 00:10:51;;;;;;;0.28;0.28;;;;;;;13.00;67.79;103169.31;5040225;28;20025;-83
2021/10/08 00:13:18;;;;;;;0.10;0.10;;;;;;;13.04;67.81;103174.63;5039513;28;20095;-84
2021/10/08 00:15:45;;;;;;;0.10;0.10;;;;;;;13.08;68.27;103167.56;5042220;28;20037;-82
2021/10/08 00:18:11;;;;;;;3.40;2.03;;;;;;;13.05;68.18;103173.75;5045139;28;20479;-83
2021/10/08 00:20:38;;;;;;;1.80;0.55;;;;;;;13.01;67.95;103179.03;5044383;28;20052;-82
2021/10/08 00:23:04;;;;;;;0.30;0.30;;;;;;;13.08;67.66;103183.53;5042872;28;20037;-83
2021/10/08 00:25:31;;;;;;;0.10;0.10;;;;;;;13.06;68.19;103180.88;5040729;28;20068;-83
2021/10/08 00:27:57;;;;;;;0.10;0.10;;;;;;;13.04;68.11;103177.28;5038623;28;20443;-84
2021/10/08 00:30:27;;;;;;;0.40;0.40;;;;;;;13.06;68.21;103172.88;5041432;28;20057;-84
2021/10/08 00:32:54;;;;;;;0.80;0.45;;;;;;;13.06;67.65;103174.63;5043721;28;20080;-83
2021/10/08 00:35:21;;;;;;;0.10;0.10;;;;;;;13.06;67.68;103185.28;5041639;28;20032;-84
2021/10/08 00:37:51;;;;;;;0.10;0.10;;;;;;;13.05;67.89;103180.88;5042714;28;20029;-83
2021/10/08 00:40:17;;;;;;;0.60;0.60;;;;;;;12.99;67.83;103179.03;5044821;28;20025;-82
2021/10/08 00:42:46;;;;;;;0.52;0.52;;;;;;;13.00;67.86;103185.28;5040919;28;20029;-81
2021/10/08 00:45:13;;;;;;;0.10;0.10;;;;;;;13.00;67.91;103185.28;5041986;28;20108;-80
2021/10/08 00:47:40;;;;;;;0.03;0.03;;;;;;;13.02;67.67;103180.81;5041104;28;20042;-82
2021/10/08 00:50:08;;;;;;;0.35;0.35;;;;;;;13.02;67.85;103192.38;5038727;28;20029;-84
2021/10/08 00:52:35;;;;;;;0.10;0.10;;;;;;;13.00;67.31;103190.59;5045268;28;20071;-84
2021/10/08 00:55:03;;;;;;;0.10;0.10;;;;;;;13.00;67.97;103193.25;5036614;28;20033;-84
2021/10/08 00:57:29;;;;;;;0.10;0.10;;;;;;;12.99;67.75;103187.03;5045405;28;20063;-84
2021/10/08 00:59:56;;;;;;;0.22;0.22;;;;;;;12.98;67.53;103187.91;5032524;28;20067;-83
2021/10/08 01:02:24;;;;;;;0.10;0.10;;;;;;;12.98;67.89;103185.22;5042867;28;20021;-84
2021/10/08 01:04:56;;;;;;;0.10;0.10;;;;;;;12.94;68.08;103181.66;5041818;28;20364;-82
2021/10/08 01:07:23;;;;;;;0.20;0.20;;;;;;;13.01;67.61;103184.38;5046171;28;20063;-84
2021/10/08 01:09:50;;;;;;;0.30;0.30;;;;;;;12.95;67.81;103183.44;5038385;28;20026;-83
2021/10/08 01:12:16;;;;;;;1.25;0.95;;;;;;;12.91;67.25;103179.00;5032845;28;20025;-84
2021/10/08 01:14:43;;;;;;;0.30;0.30;;;;;;;12.89;67.80;103186.06;5032744;28;20091;-84
2021/10/08 01:17:14;;;;;;;0.17;0.17;;;;;;;12.91;68.10;103183.41;5048850;28;20033;-84
2021/10/08 01:19:41;;;;;;;0.10;0.10;;;;;;;12.88;67.25;103183.38;5039625;28;20026;-84
2021/10/08 01:22:08;;;;;;;0.50;0.50;;;;;;;12.81;67.64;103177.13;5037184;28;20021;-83
2021/10/08 01:24:35;;;;;;;0.25;0.25;;;;;;;12.81;67.88;103178.88;5041735;28;20534;-84
2021/10/08 01:27:03;;;;;;;0.10;0.10;;;;;;;12.83;67.52;103172.69;5041752;28;20026;-84
2021/10/08 01:29:31;;;;;;;1.23;1.23;;;;;;;12.77;67.62;103180.63;5040660;28;20021;-80
2021/10/08 01:31:58;;;;;;;0.60;0.60;;;;;;;12.73;67.87;103184.16;5048658;28;20415;-84
2021/10/08 01:34:24;;;;;;;0.10;0.10;;;;;;;12.75;68.35;103174.44;5047157;28;20194;-84
2021/10/08 01:36:51;;;;;;;0.20;0.20;;;;;;;12.80;68.01;103183.34;5049198;28;20039;-83
2021/10/08 01:39:17;;;;;;;0.10;0.10;;;;;;;12.80;67.84;103178.00;5048365;28;20045;-79
2021/10/08 01:41:44;;;;;;;0.10;0.10;;;;;;;12.72;67.96;103185.03;5040775;28;20069;-83
2021/10/08 01:44:10;;;;;;;0.10;0.10;;;;;;;12.71;67.86;103184.16;5040644;28;20045;-82
2021/10/08 01:46:37;;;;;;;0.10;0.10;;;;;;;12.70;67.92;103184.16;5040851;28;20044;-83
2021/10/08 01:49:03;;;;;;;0.57;0.57;;;;;;;12.71;67.94;103193.88;5046324;28;20052;-83
2021/10/08 01:51:30;;;;;;;0.85;0.45;;;;;;;12.67;67.95;103192.97;5048958;28;20096;-85
2021/10/08 01:53:56;;;;;;;0.63;0.63;;;;;;;12.73;67.83;103192.13;5050807;28;20025;-85
2021/10/08 01:56:22;;;;;;;1.60;1.55;;;;;;;12.70;67.51;103195.66;5050804;28;20460;-83
2021/10/08 01:58:49;;;;;;;0.32;0.32;;;;;;;12.68;67.02;103192.09;5047765;28;20163;-82
2021/10/08 02:01:15;;;;;;;0.40;0.40;;;;;;;12.66;67.53;103200.94;5049320;28;20175;-82
2021/10/08 02:03:46;;;;;;;0.17;0.17;;;;;;;12.65;67.67;103193.81;5050397;28;20028;-84
2021/10/08 02:06:13;;;;;;;0.60;0.60;;;;;;;12.50;67.48;103192.81;5049959;28;20032;-83
2021/10/08 02:08:39;;;;;;;0.10;0.10;;;;;;;12.58;67.35;103193.75;5038662;28;20391;-83
2021/10/08 02:11:06;;;;;;;0.10;0.10;;;;;;;12.54;67.92;103199.94;5042770;28;20091;-84
2021/10/08 02:13:32;;;;;;;0.10;0.10;;;;;;;12.56;68.29;103199.94;5042577;28;20034;-85
2021/10/08 02:15:58;;;;;;;0.17;0.17;;;;;;;12.58;67.99;103192.88;5045834;28;20033;-84
2021/10/08 02:18:25;;;;;;;0.10;0.10;;;;;;;12.53;68.47;103190.19;5039930;28;20033;-85
2021/10/08 02:20:51;;;;;;;0.10;0.10;;;;;;;12.57;67.60;103185.78;5042989;28;20030;-85
2021/10/08 02:23:18;;;;;;;0.10;0.10;;;;;;;12.59;67.94;103192.03;5041133;28;20029;-85
2021/10/08 02:25:44;;;;;;;1.20;1.10;;;;;;;12.62;68.00;103184.97;5040015;28;20029;-85
2021/10/08 02:28:10;;;;;;;0.20;0.20;;;;;;;12.61;67.44;103193.81;5050950;28;20048;-85
2021/10/08 02:30:37;;;;;;;0.10;0.10;;;;;;;12.55;67.33;103188.44;5043293;28;20116;-83
2021/10/08 02:33:03;;;;;;;0.28;0.28;;;;;;;12.57;67.69;103185.78;5037817;28;20021;-84
2021/10/08 02:35:30;;;;;;;0.10;0.10;;;;;;;12.55;68.06;103188.44;5039533;28;20030;-85
2021/10/08 02:37:56;;;;;;;0.28;0.28;;;;;;;12.56;67.48;103190.22;5038424;28;20107;-83
2021/10/08 02:40:23;;;;;;;0.10;0.10;;;;;;;12.53;67.63;103179.53;5039684;28;20036;-84
2021/10/08 02:42:49;;;;;;;0.10;0.10;;;;;;;12.60;66.95;103185.81;5042008;28;20479;-84
2021/10/08 02:45:16;;;;;;;0.30;0.30;;;;;;;12.59;66.97;103187.56;5041123;28;20494;-85
2021/10/08 02:47:43;;;;;;;0.13;0.13;;;;;;;12.62;66.94;103187.63;5038877;28;20022;-83
2021/10/08 02:50:09;;;;;;;0.10;0.10;;;;;;;12.52;67.83;103183.06;5042979;28;20024;-85
2021/10/08 02:52:36;;;;;;;1.83;1.73;;;;;;;12.57;67.47;103186.69;5040007;28;20112;-85
2021/10/08 02:55:03;;;;;;;0.15;0.15;;;;;;;12.58;67.78;103183.13;5038163;28;20056;-84
2021/10/08 02:57:29;;;;;;;0.10;0.10;;;;;;;12.60;67.30;103184.03;5036016;28;20460;-83
2021/10/08 02:59:56;;;;;;;3.80;0.88;;;;;;;12.57;67.60;103189.34;5041536;28;20029;-84
2021/10/08 03:02:27;;;;;;;0.47;0.47;;;;;;;12.43;67.47;103180.34;5039497;28;20056;-84
2021/10/08 03:05:05;;;;;;;0.10;0.10;;;;;;;12.43;67.02;103193.63;5043971;28;20029;-84
2021/10/08 03:07:37;;;;;;;0.20;0.20;;;;;;;12.42;67.86;103190.09;5060203;22;20036;-90
2021/10/08 03:10:17;;;;;;;0.10;0.10;;;;;;;12.45;67.30;103194.56;5054780;28;20033;-92
2021/10/08 03:12:45;;;;;;;0.45;0.45;;;;;;;12.40;67.88;103199.81;5054951;28;20036;-93
2021/10/08 03:15:12;;;;;;;0.57;0.57;;;;;;;12.39;67.61;103197.16;5054375;28;20028;-93
2021/10/08 03:17:38;;;;;;;0.15;0.15;;;;;;;12.40;67.53;103205.13;5053685;28;20029;-88
2021/10/08 03:20:06;;;;;;;0.73;0.73;;;;;;;12.42;67.26;103202.47;5054653;28;20026;-88
2021/10/08 03:22:34;;;;;;;0.10;0.10;;;;;;;12.35;67.90;103201.53;5054951;28;20059;-91
2021/10/08 03:25:08;;;;;;;0.10;0.10;;;;;;;12.40;67.71;103204.22;5054590;28;20041;-93
2021/10/08 03:27:36;;;;;;;1.38;1.05;;;;;;;12.35;66.61;103206.84;5053228;28;20475;-94
2021/10/08 03:30:06;;;;;;;0.88;0.85;;;;;;;12.35;66.94;103209.50;5052709;28;20036;-91
2021/10/08 03:32:33;;;;;;;0.32;0.30;;;;;;;12.32;67.06;103206.81;5055378;28;20048;-94
2021/10/08 03:34:59;;;;;;;0.10;0.10;;;;;;;12.25;66.95;103205.84;5056028;28;20410;-92
2021/10/08 03:37:35;;;;;;;0.10;0.10;;;;;;;12.32;66.91;103211.25;5073658;28;20043;-87
2021/10/08 03:40:01;;;;;;;0.20;0.20;;;;;;;12.24;67.68;103209.38;5074551;28;20056;-91
2021/10/08 03:42:27;;;;;;;0.10;0.10;;;;;;;12.29;66.97;103207.66;5075473;28;20044;-89
2021/10/08 03:44:57;;;;;;;0.20;0.20;;;;;;;12.26;67.20;103206.75;5073447;28;20026;-86
2021/10/08 03:47:33;;;;;;;0.10;0.10;;;;;;;12.26;67.13;103204.06;5074107;28;20017;-88
2021/10/08 03:49:59;;;;;;;0.00;0.00;;;;;;;12.26;67.51;103207.66;5062548;28;20563;-91
2021/10/08 03:52:28;;;;;;;0.10;0.10;;;;;;;12.24;67.27;103204.06;5054866;28;20480;-92
2021/10/08 03:54:54;;;;;;;0.13;0.13;;;;;;;12.25;66.93;103205.84;5053891;28;20029;-92
2021/10/08 03:57:21;;;;;;;0.20;0.20;;;;;;;12.23;67.20;103204.94;5053596;28;20025;-91
2021/10/08 03:59:47;;;;;;;0.10;0.10;;;;;;;12.20;67.58;103207.56;5053795;28;20036;-92
2021/10/08 04:02:13;;;;;;;0.50;0.50;;;;;;;12.19;67.54;103205.78;5053806;28;20021;-92
2021/10/08 04:04:42;;;;;;;0.22;0.22;;;;;;;12.16;67.19;103203.09;5052382;28;20036;-92
2021/10/08 04:07:08;;;;;;;0.20;0.20;;;;;;;12.13;67.21;103205.72;5053414;28;20059;-90
2021/10/08 04:09:34;;;;;;;0.10;0.10;;;;;;;12.16;67.60;103196.88;5053695;28;20037;-94
2021/10/08 04:12:00;;;;;;;0.40;0.40;;;;;;;12.07;67.56;103200.34;5052553;28;20021;-93
2021/10/08 04:14:30;;;;;;;0.10;0.10;;;;;;;12.10;66.95;103200.34;5053624;28;20040;-91
2021/10/08 04:16:56;;;;;;;0.10;0.10;;;;;;;12.10;67.27;103195.03;5052747;28;20044;-88
2021/10/08 04:19:22;;;;;;;0.10;0.10;;;;;;;12.04;67.23;103197.66;5053193;28;20036;-88
2021/10/08 04:21:48;;;;;;;0.10;0.10;;;;;;;12.11;66.79;103196.81;5053474;28;20032;-90
2021/10/08 04:24:15;;;;;;;0.10;0.10;;;;;;;11.98;66.87;103198.47;5053468;28;20071;-93
2021/10/08 04:26:42;;;;;;;0.10;0.10;;;;;;;11.96;66.84;103189.56;5053559;28;20021;-91
2021/10/08 04:29:08;;;;;;;0.10;0.10;;;;;;;11.95;66.84;103196.63;5054096;28;20029;-93
2021/10/08 04:31:34;;;;;;;0.10;0.10;;;;;;;11.95;67.71;103201.03;5055055;28;20387;-89
2021/10/08 04:34:00;;;;;;;0.65;0.65;;;;;;;11.90;67.22;103198.34;5057937;28;20369;-92
2021/10/08 04:36:30;;;;;;;0.55;0.55;;;;;;;11.97;67.46;103209.97;5058132;28;20107;-92
2021/10/08 04:38:57;;;;;;;0.10;0.10;;;;;;;11.95;67.66;103207.25;5054724;28;20445;-92
2021/10/08 04:41:23;;;;;;;0.10;0.10;;;;;;;11.93;67.53;103197.47;5034989;28;20037;-93
2021/10/08 04:43:49;;;;;;;0.60;0.60;;;;;;;12.01;67.30;103203.78;5051724;28;20476;-90
2021/10/08 04:46:16;;;;;;;0.20;0.20;;;;;;;12.08;67.25;103203.00;5044883;28;20467;-93
2021/10/08 04:48:55;;;;;;;0.10;0.10;;;;;;;12.14;67.22;103202.19;5049756;28;20083;-91
2021/10/08 04:51:21;;;;;;;0.10;0.10;;;;;;;12.10;67.45;103195.03;5053068;28;20606;-91
2021/10/08 04:53:48;;;;;;;0.10;0.10;;;;;;;12.03;66.91;103196.75;5052676;28;20100;-93
2021/10/08 04:56:14;;;;;;;0.10;0.10;;;;;;;12.01;66.40;103205.56;5053145;28;20036;-90
2021/10/08 04:58:40;;;;;;;0.20;0.20;;;;;;;11.90;67.31;103219.59;5055576;28;20029;-90
2021/10/08 05:01:06;;;;;;;0.35;0.35;;;;;;;11.84;67.21;103218.59;5054961;28;20108;-90
2021/10/08 05:03:34;;;;;;;0.10;0.10;;;;;;;11.82;66.91;103216.84;5055408;28;20040;-89
2021/10/08 05:06:01;;;;;;;0.20;0.20;;;;;;;11.80;67.52;103222.97;5056543;28;20095;-88
2021/10/08 05:08:27;;;;;;;0.10;0.10;;;;;;;11.82;67.77;103224.81;5056885;28;20044;-90
2021/10/08 05:10:54;;;;;;;0.15;0.15;;;;;;;11.81;67.63;103224.78;5056967;28;20033;-91
2021/10/08 05:13:20;;;;;;;0.10;0.10;;;;;;;11.82;67.45;103226.56;5053974;28;20068;-93
2021/10/08 05:15:46;;;;;;;0.20;0.20;;;;;;;11.78;67.33;103222.09;5056150;28;20448;-92
2021/10/08 05:18:13;;;;;;;0.20;0.20;;;;;;;11.79;67.61;103222.09;5053463;28;20048;-83
2021/10/08 05:20:40;;;;;;;0.77;0.77;;;;;;;11.79;67.09;103226.53;5049805;28;20546;-78
2021/10/08 05:23:06;;;;;;;0.10;0.10;;;;;;;11.83;66.77;103225.69;5054573;28;20036;-88
2021/10/08 05:25:33;;;;;;;0.13;0.13;;;;;;;11.85;66.77;103231.94;5051421;28;20028;-79
2021/10/08 05:28:01;;;;;;;0.13;0.13;;;;;;;11.74;66.88;103234.44;5047059;28;20173;-85
2021/10/08 05:30:27;;;;;;;0.20;0.20;;;;;;;11.73;67.16;103229.09;5055563;28;20491;-85
2021/10/08 05:32:54;;;;;;;0.20;0.20;;;;;;;11.86;66.93;103238.13;5055760;28;20036;-78
2021/10/08 05:35:20;;;;;;;0.10;0.10;;;;;;;11.90;67.16;103224.91;5047857;28;20029;-86
2021/10/08 05:37:46;;;;;;;0.20;0.20;;;;;;;11.82;67.04;103224.81;5057173;28;20036;-88
2021/10/08 05:40:12;;;;;;;0.00;0.00;;;;;;;11.84;67.07;103223.91;5054823;28;20060;-82
2021/10/08 05:42:39;;;;;;;0.10;0.10;;;;;;;11.74;66.73;103221.16;5054872;28;20029;-84
2021/10/08 05:45:05;;;;;;;0.10;0.10;;;;;;;11.75;66.71;103230.00;5048922;28;20034;-84
2021/10/08 05:47:31;;;;;;;0.10;0.10;;;;;;;11.72;66.95;103227.31;5053995;28;20025;-84
2021/10/08 05:50:06;;;;;;;0.10;0.10;;;;;;;11.69;67.13;103232.56;5054972;28;20468;-78
2021/10/08 05:52:32;;;;;;;0.85;0.85;;;;;;;11.63;66.85;103242.25;5054033;28;20399;-85
2021/10/08 05:54:58;;;;;;;0.10;0.10;;;;;;;11.60;66.83;103236.00;5046317;28;20029;-88
2021/10/08 05:57:25;;;;;;;0.15;0.15;;;;;;;11.56;66.98;103244.78;5056866;28;20518;-88
2021/10/08 05:59:51;;;;;;;0.10;0.10;;;;;;;11.61;66.99;103243.09;5055625;28;20037;-90
2021/10/08 06:02:17;;;;;;;0.10;0.10;;;;;;;11.61;66.96;103237.78;5055913;28;20071;-90
2021/10/08 06:04:43;;;;;;;0.10;0.10;;;;;;;11.63;67.17;103242.25;5056033;28;20017;-91
2021/10/08 06:07:10;;;;;;;0.10;0.10;;;;;;;11.63;66.94;103241.38;5054539;28;20047;-89
2021/10/08 06:09:36;;;;;;;0.10;0.10;;;;;;;11.62;66.80;103251.06;5047858;28;20020;-90
2021/10/08 06:12:03;;;;;;;0.10;0.10;;;;;;;11.55;66.82;103248.31;5055768;28;20090;-90
2021/10/08 06:14:29;;;;;;;0.30;0.30;;;;;;;11.61;67.22;103249.31;5055888;28;20357;-91
2021/10/08 06:16:55;;;;;;;0.30;0.30;;;;;;;11.63;66.83;103252.88;5055595;28;20039;-93
2021/10/08 06:19:22;;;;;;;0.10;0.10;;;;;;;11.65;66.82;103256.44;5055960;28;20064;-89
2021/10/08 06:21:48;;;;;;;0.63;0.63;;;;;;;11.66;66.99;103252.00;5054927;28;20357;-92
2021/10/08 06:24:14;;;;;;;0.15;0.15;;;;;;;11.64;66.65;103259.97;5056452;28;20021;-93
2021/10/08 06:26:42;;;;;;;0.10;0.10;;;;;;;11.67;66.94;103255.59;5055769;28;20048;-87
2021/10/08 06:29:09;;;;;;;0.10;0.10;;;;;;;11.59;67.07;103260.75;5054551;28;20139;-89
2021/10/08 06:31:35;;;;;;;0.10;0.10;;;;;;;11.59;66.61;103272.28;5048409;28;20034;-93
2021/10/08 06:34:03;;;;;;;0.10;0.10;;;;;;;11.63;66.53;103268.78;5055629;28;20021;-93
2021/10/08 06:36:32;;;;;;;0.32;0.32;;;;;;;11.55;66.48;103267.81;5055651;28;20071;-93
2021/10/08 06:38:59;;;;;;;0.10;0.10;;;;;;;11.55;66.62;103264.25;5054546;28;20036;-94
2021/10/08 06:41:31;;;;;;;0.22;0.22;;;;;;;11.54;66.64;103271.34;5055766;28;20041;-93
2021/10/08 06:43:59;;;;;;;0.10;0.10;;;;;;;11.52;66.53;103270.41;5054595;28;20352;-91
2021/10/08 06:46:25;;;;;;;0.15;0.15;;;;;;;11.43;66.38;103272.94;5055101;28;20033;-87
2021/10/08 06:48:51;;;;;;;0.98;0.30;;;;;;;11.38;66.27;103277.28;5042172;28;20025;-91
2021/10/08 06:51:18;;;;;;;0.10;0.10;;;;;;;11.31;66.20;103282.50;5053833;28;20024;-90
2021/10/08 06:53:44;;;;;;;0.10;0.10;;;;;;;11.24;66.61;103280.59;5039764;28;20108;-79
2021/10/08 06:56:10;;;;;;;0.10;0.10;;;;;;;11.21;66.60;103277.88;5054999;28;20037;-79
2021/10/08 06:58:38;;;;;;;0.20;0.20;;;;;;;11.22;66.41;103284.97;5054417;28;20369;-79
2021/10/08 07:01:05;;;;;;;0.10;0.10;;;;;;;11.10;66.49;103282.13;5054276;28;20555;-85
2021/10/08 07:03:31;;;;;;;0.30;0.30;;;;;;;11.12;66.56;103291.00;5054128;28;20506;-92
2021/10/08 07:05:57;;;;;;;0.10;0.10;;;;;;;11.15;66.49;103291.03;5054488;28;20104;-80
2021/10/08 07:08:24;;;;;;;0.10;0.10;;;;;;;11.16;66.95;103292.84;5054076;28;20450;-81
2021/10/08 07:10:50;;;;;;;0.30;0.30;;;;;;;11.25;66.96;103286.78;5054514;28;20403;-89
2021/10/08 07:13:16;;;;;;;0.10;0.10;;;;;;;11.27;66.83;103291.25;5055107;28;20029;-83
2021/10/08 07:15:42;;;;;;;0.10;0.10;;;;;;;11.32;66.51;103289.56;5054670;28;20495;-94
2021/10/08 07:18:14;;;;;;;0.10;0.10;;;;;;;11.39;66.42;103290.56;5055297;28;20101;-91
2021/10/08 07:20:40;;;;;;;0.10;0.10;;;;;;;11.45;66.79;103295.06;5054062;28;20535;-86
2021/10/08 07:23:07;;;;;;;0.10;0.10;;;;;;;11.55;66.66;103296.09;5054754;28;20332;-93
2021/10/08 07:25:34;;;;;;;0.10;0.10;;;;;;;11.60;66.48;103297.97;5054753;28;20067;-92
2021/10/08 07:28:00;;;;;;;0.10;0.10;;;;;;;11.59;65.68;103297.94;5053825;28;20052;-95
2021/10/08 07:30:26;;;;;;;0.10;0.10;;;;;;;11.62;65.47;103305.97;5055293;28;20036;-95
2021/10/08 07:32:53;;;;;;;0.10;0.10;;;;;;;11.67;66.11;103306.03;5054786;28;20025;-93
2021/10/08 07:35:19;;;;;;;0.10;0.10;;;;;;;11.68;65.77;103308.72;5053632;28;20048;-91
2021/10/08 07:37:45;;;;;;;0.10;0.10;;;;;;;11.76;66.28;103308.81;5043641;22;20041;-83
2021/10/08 07:40:13;;;;;;;0.10;0.10;;;;;;;11.77;66.00;103305.28;5019796;28;20029;-84
2021/10/08 07:42:40;;;;;;;0.10;0.10;;;;;;;11.77;66.68;103308.81;5024398;28;20021;-84
2021/10/08 07:45:09;;;;;;;0.10;0.10;;;;;;;11.80;65.98;103303.56;5027424;28;20039;-83
2021/10/08 07:47:36;;;;;;;0.10;0.10;;;;;;;11.92;66.13;103310.81;5017233;28;20025;-84
2021/10/08 07:50:03;;;;;;;0.10;0.10;;;;;;;12.03;66.12;103302.16;5028953;28;20029;-84
2021/10/08 07:52:29;;;;;;;0.22;0.22;;;;;;;12.05;65.17;103301.28;5022653;28;20036;-83
2021/10/08 07:54:55;;;;;;;0.10;0.10;;;;;;;12.12;64.70;103302.25;5021827;28;20034;-84
2021/10/08 07:57:21;;;;;;;2.72;0.57;;;;;;;12.12;64.99;103313.81;5029078;28;20034;-83
2021/10/08 07:59:48;;;;;;;0.10;0.10;;;;;;;12.17;65.99;103311.19;5016929;28;20030;-82
2021/10/08 08:02:14;;;;;;;0.10;0.10;;;;;;;12.20;65.50;103308.56;5026015;28;20462;-83
2021/10/08 08:04:40;;;;;;;0.10;0.10;;;;;;;12.27;65.47;103312.19;5023262;28;20132;-80
2021/10/08 08:07:06;;;;;;;0.10;0.10;;;;;;;12.32;65.41;103312.25;5020052;28;20088;-83
2021/10/08 08:09:32;;;;;;;0.30;0.30;;;;;;;12.30;65.71;103314.91;5029853;28;20101;-85
2021/10/08 08:11:58;;;;;;;0.10;0.10;;;;;;;12.42;65.13;103320.38;5016388;28;20037;-84
2021/10/08 08:14:25;;;;;;;2.38;1.00;;;;;;;12.48;65.27;103319.53;5025842;28;20030;-85
2021/10/08 08:16:51;;;;;;;0.10;0.10;;;;;;;12.49;66.04;103324.00;5024596;28;20033;-84
2021/10/08 08:19:17;;;;;;;1.05;0.98;;;;;;;12.61;65.49;103320.56;5018581;28;20418;-85
2021/10/08 08:21:43;;;;;;;0.25;0.25;;;;;;;12.69;65.46;103315.34;5029725;28;20056;-82
2021/10/08 08:24:10;;;;;;;0.20;0.20;;;;;;;12.76;65.41;103322.50;5018838;28;20105;-83
2021/10/08 08:26:38;;;;;;;0.25;0.25;;;;;;;12.84;65.38;103323.47;5023960;28;20038;-83
2021/10/08 08:29:06;;;;;;;0.10;0.10;;;;;;;12.87;64.98;103325.28;5026392;28;20030;-83
2021/10/08 08:31:33;;;;;;;0.10;0.10;;;;;;;12.88;65.16;103314.63;5016582;28;20033;-83
2021/10/08 08:33:59;;;;;;;0.10;0.10;;;;;;;12.93;64.92;103307.63;5028949;28;20029;-83
2021/10/08 08:36:25;;;;;;;0.10;0.10;;;;;;;12.90;65.24;103322.66;5020596;28;20034;-83
2021/10/08 08:38:51;;;;;;;0.10;0.10;;;;;;;13.10;65.87;103320.19;5021887;28;20485;-82
2021/10/08 08:41:17;;;;;;;0.35;0.35;;;;;;;13.15;65.17;103318.47;5028090;28;20388;-83
2021/10/08 08:43:43;;;;;;;0.75;0.75;;;;;;;13.16;65.37;103320.25;5016491;28;20081;-82
2021/10/08 08:46:10;;;;;;;0.60;0.60;;;;;;;13.22;64.86;103320.31;5022057;28;20396;-82
2021/10/08 08:48:36;;;;;;;1.30;0.77;;;;;;;13.29;64.63;103317.69;5024958;28;20057;-82
2021/10/08 08:51:02;;;;;;;0.10;0.10;;;;;;;13.29;64.52;103315.91;5020128;28;20061;-82
2021/10/08 08:53:29;;;;;;;0.43;0.30;;;;;;;13.37;64.92;103319.56;5029409;28;20492;-84
2021/10/08 08:55:55;;;;;;;0.20;0.20;;;;;;;13.42;65.14;103322.25;5029554;28;20041;-83
2021/10/08 08:58:21;;;;;;;0.10;0.10;;;;;;;13.53;65.30;103320.59;5031479;28;20040;-84
2021/10/08 09:01:04;;;;;;;0.63;0.63;;;;;;;13.74;65.17;103324.25;5031541;28;20029;-83
2021/10/08 09:03:30;;;;;;;1.33;1.23;;;;;;;13.75;65.42;103320.72;5033206;28;20112;-82
2021/10/08 09:05:59;;;;;;;0.10;0.10;;;;;;;13.88;65.17;103327.91;5018313;28;20045;-83
2021/10/08 09:08:34;;;;;;;3.63;1.20;;;;;;;13.96;64.97;103324.41;5012326;28;20081;-82
2021/10/08 09:11:05;;;;;;;0.73;0.73;;;;;;;13.98;65.03;103317.28;5013612;28;20058;-82
2021/10/08 09:13:31;;;;;;;1.17;1.13;;;;;;;14.10;65.06;103325.34;5013300;28;20026;-81
2021/10/08 09:15:59;;;;;;;0.10;0.10;;;;;;;14.18;65.13;103320.06;5013417;28;20382;-78
2021/10/08 09:18:29;;;;;;;0.10;0.10;;;;;;;14.22;64.62;103317.41;5011792;28;20477;-82
2021/10/08 09:21:15;;;;;;;0.10;0.10;;;;;;;14.40;64.17;103315.69;5010381;28;20061;-82
2021/10/08 09:23:47;;;;;;;0.10;0.10;;;;;;;14.45;64.20;103319.28;5011433;28;20029;-81
2021/10/08 09:26:16;;;;;;;0.10;0.10;;;;;;;14.51;63.69;103324.63;5013334;28;20076;-82
2021/10/08 09:28:55;;;;;;;0.47;0.47;;;;;;;14.55;63.27;103315.78;5011420;28;20528;-82
2021/10/08 09:31:27;;;;;;;4.03;1.05;;;;;;;14.59;63.59;103321.09;5011077;28;20465;-82
2021/10/08 09:37:01;;;;;;;0.10;0.10;;;;;;;14.65;63.87;103315.81;5107576;27;20396;-83
2021/10/08 09:39:31;;;;;;;0.30;0.30;;;;;;;14.69;63.78;103315.84;5091053;28;20029;-83
2021/10/08 09:42:00;;;;;;;1.45;1.35;;;;;;;14.70;63.68;103314.03;5088553;28;20033;-81
2021/10/08 09:44:28;;;;;;;0.10;0.10;;;;;;;14.76;64.14;103314.06;5090946;28;20066;-83
2021/10/08 09:50:07;;;;;;;0.65;0.65;;;;;;;15.08;64.04;103323.00;5082580;28;20423;-82
2021/10/08 09:52:35;;;;;;;0.25;0.25;;;;;;;15.14;64.06;103323.00;5071071;28;20052;-82
2021/10/08 09:55:07;;;;;;;0.10;0.10;;;;;;;15.25;64.03;103318.53;5070656;28;20111;-82
2021/10/08 10:00:42;;;;;;;0.20;0.20;;;;;;;15.58;64.34;103313.22;5061945;28;20423;-82
2021/10/08 10:03:11;;;;;;;0.10;0.10;;;;;;;15.70;64.19;103310.47;5050533;28;20039;-83
2021/10/08 10:05:37;;;;;;;0.57;0.57;;;;;;;15.93;63.85;103317.63;5048679;28;20459;-82
2021/10/08 10:08:05;;;;;;;1.17;1.17;;;;;;;15.95;63.00;103310.47;5033074;28;20021;-83
2021/10/08 10:10:33;;;;;;;1.02;0.63;;;;;;;16.08;62.81;103314.88;5030058;28;20448;-82
2021/10/08 10:13:00;;;;;;;1.30;0.93;;;;;;;16.11;62.67;103317.56;5027967;28;20080;-82
2021/10/08 10:15:27;;;;;;;1.13;0.95;;;;;;;16.22;62.88;103313.94;5029715;28;20033;-83
2021/10/08 10:17:56;;;;;;;0.80;0.80;;;;;;;16.23;62.35;103321.94;5029525;28;20064;-84
2021/10/08 10:20:24;;;;;;;0.50;0.50;;;;;;;16.22;62.22;103308.59;5030071;28;20036;-83
2021/10/08 10:22:52;;;;;;;2.03;1.95;;;;;;;16.28;62.57;103316.59;5029862;28;20040;-83
2021/10/08 10:25:18;;;;;;;1.38;1.38;;;;;;;16.36;62.77;103312.06;5029865;28;20503;-84
2021/10/08 10:27:48;;;;;;;0.63;0.63;;;;;;;16.38;62.39;103304.94;5029818;28;20069;-83
2021/10/08 10:30:18;;;;;;;0.50;0.50;;;;;;;16.47;63.03;103304.91;5030007;28;20048;-83
2021/10/08 10:32:47;;;;;;;0.95;0.95;;;;;;;16.44;62.55;103304.91;5029914;28;20072;-83
2021/10/08 10:35:37;;;;;;;1.15;1.05;;;;;;;16.64;62.27;103301.25;5030143;28;20041;-82
2021/10/08 10:38:26;;;;;;;0.95;0.88;;;;;;;16.87;62.69;103303.75;5044025;22;20411;-84
2021/10/08 10:44:10;;;;;;;1.50;1.42;;;;;;;16.88;62.20;103304.66;5110963;27;20419;-87
2021/10/08 10:46:41;;;;;;;1.48;1.48;;;;;;;16.91;62.21;103304.63;5107289;28;20115;-87
2021/10/08 11:03:01;;;;;;;3.50;1.83;;;;;;;17.54;61.19;103290.69;5091440;28;20629;-87
2021/10/08 11:05:29;;;;;;;0.50;0.50;;;;;;;17.57;61.45;103289.78;5071694;28;20029;-90
2021/10/08 11:08:13;;;;;;;0.40;0.40;;;;;;;17.71;61.40;103287.84;5055064;28;20119;-87
2021/10/08 11:10:44;;;;;;;1.60;1.50;;;;;;;17.74;60.91;103293.16;5050399;28;20431;-88
2021/10/08 11:13:30;;;;;;;0.73;0.73;;;;;;;17.92;60.64;103280.47;5050590;28;20107;-89
2021/10/08 11:24:22;;;;;;;2.35;1.77;;;;;;;18.15;60.85;103265.91;5070740;28;20485;-91
2021/10/08 11:26:52;;;;;;;1.10;1.10;;;;;;;18.19;60.35;103267.63;5070665;28;20048;-91
2021/10/08 11:29:18;;;;;;;0.35;0.35;;;;;;;18.29;60.80;103263.91;5060042;28;20553;-85
2021/10/08 11:31:46;;;;;;;0.63;0.63;;;;;;;18.35;60.76;103263.81;5070040;28;20398;-86
2021/10/08 11:34:13;;;;;;;4.47;1.05;;;;;;;18.54;60.57;103260.88;5069682;28;20032;-86
2021/10/08 11:36:40;;;;;;;0.45;0.45;;;;;;;18.63;60.53;103263.44;5069578;28;20024;-89
2021/10/08 11:42:09;;;;;;;2.72;2.13;;;;;;;18.91;59.68;103246.91;5090057;27;20433;-86
2021/10/08 11:44:42;;;;;;;0.77;0.77;;;;;;;18.91;59.86;103246.91;5030081;28;20511;-87
2021/10/08 11:47:17;;;;;;;2.50;2.30;;;;;;;19.05;60.23;103249.34;5036942;28;20121;-86
2021/10/08 11:52:44;;;;;;;1.05;0.98;;;;;;;19.36;59.11;103241.59;5050449;28;20041;-87
2021/10/08 12:00:56;;;;;;;2.40;1.13;;;;;;;19.50;58.87;103230.63;5113365;27;20410;-88
2021/10/08 12:03:28;;;;;;;0.22;0.22;;;;;;;19.52;59.08;103228.75;5105065;28;20508;-85
2021/10/08 12:08:41;;;;;;;4.63;2.47;;;;;;;19.70;59.03;103226.63;5028358;28;20100;-84
2021/10/08 12:11:11;;;;;;;7.10;2.88;;;;;;;19.78;59.01;103216.59;5028520;28;20026;-83
2021/10/08 12:13:42;;;;;;;2.38;2.17;;;;;;;19.83;59.26;103216.53;5026200;28;20381;-83
2021/10/08 12:16:10;;;;;;;2.23;2.13;;;;;;;19.94;58.37;103211.81;5028266;28;20427;-83